Impacts TAF Board
For situational awareness. Not to be used for flight planning purposes.
IDs:

KTCL - Tuscaloosa Rgnl, AL, US

Issued at 1140 UTC 19 Aug 2019
Updated at 1451 UTC 19 Aug 2019
Potential Impact None Slight Moderate High
Time<<20/03Z 20/04Z 20/05Z 20/06Z 20/07Z 20/08Z 20/09Z 20/10Z 20/11Z 20/12Z 20/13Z 20/14Z 20/15Z>>
Type PRVL PRVL PRVL PRVL PRVL PRVL PRVL PRVL PRVL
VIS >6 >6 >6 >6 >6 >6 >6 >6 >6
CIG -- -- -- -- -- -- -- -- --
Cover SCT SCT SCT SCT SCT SCT SCT SCT SCT
FltCat VFR VFR VFR VFR VFR VFR VFR VFR VFR
WX -- -- -- -- -- -- -- -- --
WDir VRB VRB VRB VRB VRB VRB VRB VRB VRB
WSpd 0 0 0 0 0 0 0 0 0
WGst -- -- -- -- -- -- -- -- --
Raw TAF
KTCL 191140Z 1912/2012 00000KT P6SM OVC250
  FM191900 16005KT P6SM VCSH SCT070
  PROB30 1921/2001 VRB10G20KT 6SM TSRA BR BKN050CB
  FM200200 00000KT P6SM SCT150


METAR Board
Radar Display
Forecast Discussion
For situational awareness. Not to be used for flight planning purposes.